Hauptseite
METAR-TAF:

METAR-TAF

Flughäfen :

Grenchen, Schweiz

Flughafen Grenchen

Breite: 47-10-53N, Länge: 007-24-59E, Höhe: 430 m

Beobachtung

Neuester Wetterbericht von vor 7 Minuten, um 01:20 UTC
Wind 16 kt aus Ost
Temperatur -2°C
Luftfeuchtigkeit 63%
Luftdruck 1014 hPa
Sichtweite 10 km oder mehr
Durchbrochene Bewölkung in der Höhe von 2700 ft

METAR: LSZG 250120Z AUTO 08016KT 9999 BKN027 M02/M08 Q1014

Zeit: 02:27 (01:27 UTC)

Prognose

Neuester Wetterbericht von vor 11 Stunden und 2 Minuten, um 14:25 UTC
Gültige Prognose vom 24 um 15 UTC bis 24 um 24 UTC
Wind 15 kt aus Nordost
Sichtweite: 8000 m
Geschlossene Wolkendecke in der Höhe von 2000 ft
Wahrscheinlichkeit 40% :
Zeitweise
vom 24 um 15 UTC bis 24 um 24 UTC
Wind 15 kt aus Ost/Nordost, Böen bis zu 25 kt

TAF: LSZG 241425Z 2415/2424 05015KT 8000 OVC020 PROB40 TEMPO 2415/2424 06015G25KT

Wetterbeobachtungen und Prognosen von mehr als 4000 Flughäfen (METAR und TAF Bericht).

Die verfügbaren Stationen werden durch gelbe und rote Markierungen auf der Karte dargestellt.

Führen Sie die Maus auf sie, um den Namen der Station zu sehen.

Darauf klicken, um die Beobachtung von Wetterbeobachtungen und Prognosen zu sehen.

Um die Karte zu ändern : klicken Sie auf den grünen Tasten mit einem schwarzen Kreuz Zum Vergrößern, auf den grünen Button mit einem Gedankenstrich zu verkleinern, oder auf die grünen Pfeile für benachbarte Karten.


METAR-TAF: